Time;durP1;ratioP1;P1;durP2;ratioP2;P2;SDS_P1;SDS_P2;PMS_P1;PMS_P2;Temp;Humidity;BMP_temperature;BMP_pressure;BME280_temperature;BME280_humidity;BME280_pressure;Samples;Min_cycle;Max_cycle;Signal;HPM_P1;HPM_P2
2023/03/02 00:00:14;;;;;;;8.38;3.90;;;5.00;57.50;;;;;;5114241;28;20043;-74
2023/03/02 00:02:41;;;;;;;7.57;3.67;;;4.90;57.60;;;;;;5114382;28;20028;-74
2023/03/02 00:05:09;;;;;;;7.82;3.80;;;4.90;57.90;;;;;;5113370;28;20020;-74
2023/03/02 00:07:36;;;;;;;7.07;3.08;;;4.90;58.00;;;;;;5114041;28;20024;-74
2023/03/02 00:10:04;;;;;;;8.88;3.90;;;4.90;58.00;;;;;;5112981;28;20031;-74
2023/03/02 00:12:32;;;;;;;6.10;3.35;;;4.90;58.00;;;;;;5113111;28;20016;-74
2023/03/02 00:14:57;;;;;;;8.60;3.92;;;4.90;57.90;;;;;;5113994;28;20043;-74
2023/03/02 00:17:26;;;;;;;8.80;4.05;;;4.90;58.20;;;;;;5114104;28;20047;-74
2023/03/02 00:20:10;;;;;;;8.90;3.97;;;4.80;58.40;;;;;;5114075;28;20024;-74
2023/03/02 00:22:43;;;;;;;7.07;3.90;;;4.70;58.60;;;;;;5113991;28;20024;-74
2023/03/02 00:25:10;;;;;;;9.15;4.30;;;4.70;58.50;;;;;;5114043;28;20050;-74
2023/03/02 00:27:36;;;;;;;9.80;4.50;;;4.70;58.80;;;;;;5113739;28;20024;-74
2023/03/02 00:30:02;;;;;;;8.35;3.83;;;4.70;58.90;;;;;;5112426;28;20052;-74
2023/03/02 00:32:27;;;;;;;6.82;3.67;;;4.70;58.60;;;;;;5113738;28;20036;-74
2023/03/02 00:34:53;;;;;;;7.85;4.00;;;4.70;58.60;;;;;;5113697;28;20024;-74
2023/03/02 00:37:19;;;;;;;7.53;3.88;;;4.70;58.60;;;;;;5113827;28;20147;-74
2023/03/02 00:39:45;;;;;;;8.20;3.72;;;4.60;58.80;;;;;;5113672;28;20016;-74
2023/03/02 00:42:10;;;;;;;9.18;4.28;;;4.60;59.20;;;;;;5113615;28;20050;-74
2023/03/02 00:44:36;;;;;;;7.25;3.78;;;4.40;59.30;;;;;;5112662;28;20107;-74
2023/03/02 00:47:01;;;;;;;8.65;4.43;;;4.40;59.70;;;;;;5112650;28;20058;-74
2023/03/02 00:49:27;;;;;;;9.82;4.30;;;4.40;60.20;;;;;;5113472;28;20060;-74
2023/03/02 00:51:53;;;;;;;6.70;4.38;;;4.40;60.50;;;;;;5112579;28;20080;-74
2023/03/02 00:54:18;;;;;;;8.48;4.20;;;4.30;60.70;;;;;;5112557;28;20013;-74
2023/03/02 00:56:44;;;;;;;6.38;3.60;;;4.30;61.00;;;;;;5113500;28;20023;-74
2023/03/02 00:59:27;;;;;;;9.02;4.10;;;4.20;61.00;;;;;;5112433;28;20035;-74
2023/03/02 01:01:56;;;;;;;;;;;4.20;61.20;;;;;;5113868;28;20053;-74
2023/03/02 01:04:33;;;;;;;7.57;3.92;;;4.20;61.50;;;;;;5113415;28;19908;-74
2023/03/02 01:07:01;;;;;;;9.05;4.65;;;4.10;61.50;;;;;;5113568;28;20020;-74
2023/03/02 01:09:27;;;;;;;8.88;4.28;;;4.20;61.60;;;;;;5112173;28;20023;-74
2023/03/02 01:11:53;;;;;;;8.10;4.72;;;4.20;61.60;;;;;;5112355;28;20040;-74
2023/03/02 01:14:18;;;;;;;11.88;3.97;;;4.20;61.90;;;;;;5112447;28;20532;-74
2023/03/02 01:16:46;;;;;;;7.88;4.25;;;4.10;62.20;;;;;;5113164;28;20092;-74
2023/03/02 01:19:12;;;;;;;8.75;4.53;;;4.10;62.20;;;;;;5116391;28;20027;-74
2023/03/02 01:21:37;;;;;;;9.40;4.32;;;4.10;62.40;;;;;;5117295;28;20028;-74
2023/03/02 01:24:04;;;;;;;11.15;4.97;;;4.20;62.30;;;;;;5117234;28;20058;-74
2023/03/02 01:26:29;;;;;;;10.85;5.10;;;4.20;62.70;;;;;;5117213;28;20020;-74
2023/03/02 01:28:55;;;;;;;11.45;5.03;;;4.10;62.60;;;;;;5116908;28;20388;-74
2023/03/02 01:31:25;;;;;;;9.48;4.95;;;4.20;62.70;;;;;;5117137;28;20078;-74
2023/03/02 01:33:51;;;;;;;10.18;5.10;;;4.20;63.40;;;;;;5116104;28;20050;-74
2023/03/02 01:36:17;;;;;;;9.48;4.82;;;4.20;63.30;;;;;;5117058;28;20075;-74
2023/03/02 01:38:43;;;;;;;9.77;5.60;;;4.20;63.40;;;;;;5116999;28;20031;-74
2023/03/02 01:41:09;;;;;;;13.57;5.60;;;4.20;63.60;;;;;;5116985;28;20099;-74
2023/03/02 01:43:35;;;;;;;13.63;6.20;;;4.20;64.00;;;;;;5116916;28;20039;-74
2023/03/02 01:46:20;;;;;;;14.40;6.05;;;4.20;64.10;;;;;;5116849;28;20054;-74
2023/03/02 01:48:51;;;;;;;11.20;5.53;;;4.20;64.40;;;;;;5116749;28;20050;-74
2023/03/02 01:51:22;;;;;;;14.98;6.53;;;4.20;64.50;;;;;;5116743;28;20056;-74
2023/03/02 01:53:55;;;;;;;14.85;5.95;;;4.10;64.80;;;;;;5116789;28;20027;-74
2023/03/02 01:56:28;;;;;;;13.93;6.22;;;4.10;64.80;;;;;;5115695;28;20024;-74
2023/03/02 01:59:02;;;;;;;15.20;6.25;;;4.20;65.30;;;;;;5116638;28;20028;-74
2023/03/02 02:01:30;;;;;;;16.77;6.90;;;4.20;65.30;;;;;;5116597;28;20031;-74
2023/03/02 02:03:56;;;;;;;18.15;7.60;;;4.10;66.00;;;;;;5116520;28;20031;-74
2023/03/02 02:06:33;;;;;;;17.52;7.70;;;4.10;66.30;;;;;;5116458;28;20471;-74
2023/03/02 02:09:02;;;;;;;15.55;6.95;;;4.10;67.10;;;;;;5116282;28;20035;-74
2023/03/02 02:11:28;;;;;;;16.90;7.38;;;4.00;67.30;;;;;;5116349;28;20045;-74
2023/03/02 02:13:57;;;;;;;17.85;7.53;;;4.00;67.50;;;;;;5116444;28;20044;-74
2023/03/02 02:16:24;;;;;;;23.25;8.90;;;4.00;67.90;;;;;;5116276;28;20044;-74
2023/03/02 02:18:51;;;;;;;18.98;7.65;;;4.00;68.30;;;;;;5116229;28;20095;-74
2023/03/02 02:21:17;;;;;;;19.92;8.35;;;3.90;69.30;;;;;;5116181;28;20034;-74
2023/03/02 02:23:52;;;;;;;26.98;9.60;;;3.90;69.20;;;;;;5115214;28;20096;-74
2023/03/02 02:26:19;;;;;;;22.52;9.30;;;3.90;69.30;;;;;;5116072;28;20093;-74
2023/03/02 02:28:56;;;;;;;25.05;9.48;;;3.90;69.80;;;;;;5114830;28;20028;-74
2023/03/02 02:31:51;;;;;;;23.80;9.55;;;3.90;70.20;;;;;;5116029;28;20028;-74
2023/03/02 02:34:38;;;;;;;21.73;8.90;;;3.90;70.40;;;;;;5115971;28;20033;-74
2023/03/02 02:37:27;;;;;;;29.25;10.15;;;3.90;70.60;;;;;;5114957;28;20612;-74
2023/03/02 02:39:54;;;;;;;23.75;9.32;;;3.90;71.20;;;;;;5114887;28;20078;-74
2023/03/02 02:42:37;;;;;;;26.23;9.75;;;3.90;72.10;;;;;;5114776;28;20032;-74
2023/03/02 02:45:16;;;;;;;24.38;9.32;;;3.80;72.20;;;;;;5115793;28;20040;-74
2023/03/02 02:47:42;;;;;;;26.92;11.52;;;3.80;72.40;;;;;;5114571;28;20024;-74
2023/03/02 02:50:21;;;;;;;29.05;11.43;;;3.80;72.70;;;;;;5114763;28;20048;-74
2023/03/02 02:52:54;;;;;;;24.02;10.02;;;3.80;73.50;;;;;;5114694;28;20487;-74
2023/03/02 02:55:22;;;;;;;28.20;11.05;;;3.80;73.20;;;;;;5115544;28;20016;-74
2023/03/02 02:57:50;;;;;;;27.40;9.77;;;3.80;73.70;;;;;;5115520;28;20372;-74
2023/03/02 03:00:19;;;;;;;28.13;9.75;;;3.80;73.50;;;;;;5115400;28;20028;-74
2023/03/02 03:02:50;;;;;;;28.77;10.63;;;3.80;73.80;;;;;;5115340;28;20024;-74
2023/03/02 03:05:16;;;;;;;25.27;10.95;;;3.80;74.00;;;;;;5115389;28;20043;-74
2023/03/02 03:07:42;;;;;;;26.15;10.75;;;3.80;74.40;;;;;;5115162;28;20024;-74
2023/03/02 03:10:24;;;;;;;27.08;10.45;;;3.80;74.10;;;;;;5115339;28;20061;-74
2023/03/02 03:12:50;;;;;;;;;;;3.80;74.40;;;;;;5115617;28;20039;-74
2023/03/02 03:15:16;;;;;;;28.30;11.10;;;3.70;74.40;;;;;;5115117;28;19904;-74
2023/03/02 03:17:54;;;;;;;29.73;10.82;;;3.70;75.20;;;;;;5115192;28;20032;-74
2023/03/02 03:20:22;;;;;;;32.33;11.45;;;3.70;75.20;;;;;;5115107;28;20027;-74
2023/03/02 03:22:48;;;;;;;23.80;10.05;;;3.60;75.40;;;;;;5114989;28;20028;-74
2023/03/02 03:25:14;;;;;;;27.98;11.38;;;3.60;75.80;;;;;;5114957;28;20039;-74
2023/03/02 03:27:41;;;;;;;30.75;11.00;;;3.70;76.30;;;;;;5113828;28;20020;-74
2023/03/02 03:30:09;;;;;;;27.15;10.18;;;3.60;75.90;;;;;;5114605;28;20044;-74
2023/03/02 03:32:35;;;;;;;25.88;10.98;;;3.60;76.20;;;;;;5113895;28;20390;-74
2023/03/02 03:35:02;;;;;;;27.77;10.63;;;3.60;76.50;;;;;;5113692;28;20044;-74
2023/03/02 03:37:28;;;;;;;25.70;10.00;;;3.70;76.50;;;;;;5114701;28;20083;-74
2023/03/02 03:39:53;;;;;;;24.63;9.63;;;3.60;76.20;;;;;;5114533;28;20020;-74
2023/03/02 03:42:19;;;;;;;26.67;10.27;;;3.60;76.90;;;;;;5114618;28;20020;-74
2023/03/02 03:44:45;;;;;;;27.00;10.25;;;3.50;76.40;;;;;;5114516;28;20016;-74
2023/03/02 03:47:12;;;;;;;24.55;10.52;;;3.50;76.80;;;;;;5114460;28;20044;-74
2023/03/02 03:49:37;;;;;;;26.35;10.00;;;3.40;78.10;;;;;;5114487;28;20048;-74
2023/03/02 03:52:03;;;;;;;27.92;10.43;;;3.40;77.50;;;;;;5114530;28;20031;-74
2023/03/02 03:54:29;;;;;;;24.58;10.38;;;3.40;77.80;;;;;;5114432;28;20020;-74
2023/03/02 03:56:54;;;;;;;26.30;10.43;;;3.40;78.00;;;;;;5114512;28;20023;-74
2023/03/02 03:59:24;;;;;;;25.80;11.23;;;3.40;78.10;;;;;;5114309;28;20038;-74
2023/03/02 04:01:55;;;;;;;28.13;10.45;;;3.40;77.90;;;;;;5114290;28;20102;-74
2023/03/02 04:04:27;;;;;;;27.33;10.77;;;3.40;78.00;;;;;;5114378;28;20092;-74
2023/03/02 04:06:53;;;;;;;28.80;10.20;;;3.30;78.10;;;;;;5114235;28;20020;-74
2023/03/02 04:09:20;;;;;;;26.98;10.90;;;3.30;78.20;;;;;;5114013;28;20543;-74
2023/03/02 04:11:49;;;;;;;27.73;10.45;;;3.20;78.30;;;;;;5113062;28;20025;-74
2023/03/02 04:14:15;;;;;;;27.75;11.05;;;3.20;79.20;;;;;;5113056;28;20025;-74
2023/03/02 04:16:41;;;;;;;30.42;10.85;;;3.20;79.50;;;;;;5114013;28;20049;-74
2023/03/02 04:19:08;;;;;;;27.33;11.02;;;3.10;79.60;;;;;;5113972;28;20030;-74
2023/03/02 04:21:36;;;;;;;32.72;11.60;;;3.10;79.70;;;;;;5113944;28;20023;-74
2023/03/02 04:24:02;;;;;;;35.45;12.13;;;3.10;79.80;;;;;;5113916;28;20035;-74
2023/03/02 04:26:27;;;;;;;24.15;9.38;;;3.10;80.10;;;;;;5113877;28;20024;-74
2023/03/02 04:28:53;;;;;;;28.20;9.75;;;3.10;79.50;;;;;;5113751;28;20054;-74
2023/03/02 04:31:18;;;;;;;25.52;10.40;;;3.10;79.30;;;;;;5113662;28;20072;-74
2023/03/02 04:33:44;;;;;;;26.10;10.68;;;3.10;79.20;;;;;;5113720;28;20058;-74
2023/03/02 04:36:10;;;;;;;28.48;10.07;;;3.20;78.80;;;;;;5113739;28;20028;-74
2023/03/02 04:38:35;;;;;;;27.55;9.98;;;3.20;78.80;;;;;;5113662;28;20028;-74
2023/03/02 04:41:01;;;;;;;26.85;10.73;;;3.20;79.10;;;;;;5112734;28;20084;-74
2023/03/02 04:43:27;;;;;;;28.60;10.52;;;3.20;79.60;;;;;;5113598;28;20031;-74
2023/03/02 04:45:53;;;;;;;31.48;10.98;;;3.10;79.60;;;;;;5113580;28;20030;-74
2023/03/02 04:48:20;;;;;;;30.95;10.35;;;3.10;79.50;;;;;;5112531;28;20021;-74
2023/03/02 04:50:45;;;;;;;25.38;10.95;;;3.10;79.20;;;;;;5113425;28;20031;-74
2023/03/02 04:53:11;;;;;;;34.72;12.00;;;3.10;80.20;;;;;;5112013;28;20024;-74
2023/03/02 04:55:37;;;;;;;32.80;11.20;;;3.10;79.50;;;;;;5113633;28;20032;-74
2023/03/02 04:58:03;;;;;;;30.58;11.38;;;3.10;79.70;;;;;;5113481;28;20032;-74
2023/03/02 05:00:32;;;;;;;31.73;11.30;;;3.00;79.60;;;;;;5113468;28;20024;-74
2023/03/02 05:02:58;;;;;;;32.75;11.52;;;3.00;80.30;;;;;;5112427;28;20024;-74
2023/03/02 05:05:24;;;;;;;30.15;11.52;;;3.00;80.60;;;;;;5113433;28;20086;-74
2023/03/02 05:07:51;;;;;;;28.75;10.80;;;3.00;80.50;;;;;;5113206;28;20033;-74
2023/03/02 05:10:18;;;;;;;27.88;11.90;;;3.00;80.10;;;;;;5113340;28;20020;-74
2023/03/02 05:12:53;;;;;;;31.52;11.98;;;2.90;81.10;;;;;;5113386;28;20020;-74
2023/03/02 05:15:24;;;;;;;33.90;12.10;;;2.80;82.30;;;;;;5113386;28;20076;-74
2023/03/02 05:17:49;;;;;;;31.25;12.68;;;2.80;81.90;;;;;;5113386;28;20058;-74
2023/03/02 05:20:15;;;;;;;37.28;11.90;;;2.80;81.90;;;;;;5112380;28;20033;-74
2023/03/02 05:22:41;;;;;;;27.83;10.60;;;2.80;81.30;;;;;;5113243;28;20024;-74
2023/03/02 05:25:07;;;;;;;31.27;10.70;;;2.80;81.60;;;;;;5113222;28;20036;-74
2023/03/02 05:27:33;;;;;;;33.83;11.93;;;2.80;81.20;;;;;;5113178;28;20051;-74
2023/03/02 05:29:58;;;;;;;32.38;11.60;;;2.80;81.20;;;;;;5112904;28;20032;-74
2023/03/02 05:32:24;;;;;;;31.00;11.30;;;2.80;81.90;;;;;;5113146;28;20487;-74
2023/03/02 05:34:50;;;;;;;37.15;13.57;;;2.80;81.50;;;;;;5112166;28;20035;-74
2023/03/02 05:37:15;;;;;;;30.95;11.18;;;2.80;82.20;;;;;;5113110;28;20025;-74
2023/03/02 05:39:41;;;;;;;39.88;13.73;;;2.70;82.30;;;;;;5112097;28;20024;-74
2023/03/02 05:42:06;;;;;;;34.22;11.50;;;2.60;82.90;;;;;;5113091;28;20047;-75
2023/03/02 05:44:33;;;;;;;28.77;11.27;;;2.60;82.60;;;;;;5113019;28;20051;-75
2023/03/02 05:46:58;;;;;;;39.20;13.55;;;2.60;82.90;;;;;;5112983;28;20387;-74
2023/03/02 05:49:24;;;;;;;40.00;12.30;;;2.60;83.30;;;;;;5111872;28;20055;-74
2023/03/02 05:51:49;;;;;;;34.35;11.73;;;2.60;83.00;;;;;;5113096;28;20028;-74
2023/03/02 05:54:15;;;;;;;42.53;13.48;;;2.60;83.00;;;;;;5094970;28;20020;-74
2023/03/02 05:56:41;;;;;;;34.35;11.57;;;2.60;83.20;;;;;;5112824;28;20106;-74
2023/03/02 05:59:07;;;;;;;36.08;11.95;;;2.50;83.10;;;;;;5112908;28;20080;-74
2023/03/02 06:01:35;;;;;;;39.65;13.30;;;2.60;83.20;;;;;;5112896;28;20020;-73
2023/03/02 06:04:01;;;;;;;38.67;13.25;;;2.50;83.40;;;;;;5114130;28;20047;-74
2023/03/02 06:06:27;;;;;;;39.97;13.45;;;2.40;83.40;;;;;;5116649;28;20039;-74
2023/03/02 06:08:52;;;;;;;32.40;11.25;;;2.40;83.50;;;;;;5116292;28;20032;-74
2023/03/02 06:11:18;;;;;;;32.72;11.35;;;2.30;83.80;;;;;;5116374;28;20020;-74
2023/03/02 06:13:43;;;;;;;42.35;11.85;;;2.30;84.00;;;;;;5116326;28;20107;-74
2023/03/02 06:16:09;;;;;;;36.38;12.73;;;2.30;83.90;;;;;;5116316;28;20020;-74
2023/03/02 06:18:36;;;;;;;37.72;12.65;;;2.30;83.80;;;;;;5115298;28;20429;-74
2023/03/02 06:21:02;;;;;;;37.40;13.40;;;2.30;83.50;;;;;;5116317;28;20032;-74
2023/03/02 06:23:28;;;;;;;39.13;12.38;;;2.40;83.20;;;;;;5116146;28;20027;-74
2023/03/02 06:25:53;;;;;;;32.72;12.00;;;2.50;82.80;;;;;;5115019;28;20479;-74
2023/03/02 06:28:20;;;;;;;33.90;11.73;;;2.50;82.70;;;;;;5115999;28;20020;-74
2023/03/02 06:30:47;;;;;;;34.80;11.18;;;2.50;82.50;;;;;;5115710;28;20044;-75
2023/03/02 06:33:14;;;;;;;35.05;12.23;;;2.50;82.80;;;;;;5115940;28;20031;-74
2023/03/02 06:35:41;;;;;;;34.08;11.48;;;2.50;82.50;;;;;;5114985;28;20142;-74
2023/03/02 06:38:06;;;;;;;32.55;12.40;;;2.50;82.50;;;;;;5114810;28;20024;-74
2023/03/02 06:40:32;;;;;;;31.35;11.27;;;2.40;82.50;;;;;;5115823;28;20085;-74
2023/03/02 06:42:59;;;;;;;36.53;12.60;;;2.40;82.70;;;;;;5115758;28;20095;-74
2023/03/02 06:45:26;;;;;;;32.30;11.48;;;2.40;82.80;;;;;;5115752;28;20503;-74
2023/03/02 06:47:52;;;;;;;33.90;10.95;;;2.40;82.80;;;;;;5115601;28;20027;-74
2023/03/02 06:50:18;;;;;;;30.02;10.77;;;2.50;82.40;;;;;;5115638;28;20032;-74
2023/03/02 06:52:44;;;;;;;35.35;11.95;;;2.50;82.30;;;;;;5115538;28;20034;-74
2023/03/02 06:55:10;;;;;;;31.17;11.23;;;2.50;82.50;;;;;;5115528;28;20044;-74
2023/03/02 06:57:35;;;;;;;30.35;10.07;;;2.50;82.30;;;;;;5115463;28;20031;-74
2023/03/02 07:00:16;;;;;;;37.92;11.43;;;2.40;82.60;;;;;;5115494;28;20042;-74
2023/03/02 07:02:45;;;;;;;29.65;10.43;;;2.40;82.80;;;;;;5115460;28;20020;-74
2023/03/02 07:05:11;;;;;;;30.08;11.23;;;2.50;82.90;;;;;;5115393;28;20105;-74
2023/03/02 07:07:37;;;;;;;27.65;10.65;;;2.50;82.70;;;;;;5114263;28;20088;-74
2023/03/02 07:10:04;;;;;;;29.50;10.95;;;2.50;83.00;;;;;;5115148;28;20035;-74
2023/03/02 07:12:30;;;;;;;29.13;10.48;;;2.40;83.50;;;;;;5115211;28;20031;-74
2023/03/02 07:14:55;;;;;;;35.20;11.63;;;2.40;83.30;;;;;;5114691;28;20076;-74
2023/03/02 07:17:21;;;;;;;32.10;10.68;;;2.40;83.60;;;;;;5114092;28;20059;-74
2023/03/02 07:19:47;;;;;;;32.70;10.80;;;2.40;83.20;;;;;;5115088;28;20030;-74
2023/03/02 07:22:12;;;;;;;34.50;12.70;;;2.40;83.40;;;;;;5114119;28;20024;-74
2023/03/02 07:24:38;;;;;;;32.53;10.90;;;2.50;83.10;;;;;;5114070;28;20024;-74
2023/03/02 07:27:04;;;;;;;32.05;10.85;;;2.50;84.10;;;;;;5113796;28;20096;-74
2023/03/02 07:29:29;;;;;;;35.33;10.73;;;2.50;83.70;;;;;;5114786;28;20032;-74
2023/03/02 07:31:58;;;;;;;32.22;11.43;;;2.50;84.40;;;;;;5113735;28;20058;-74
2023/03/02 07:34:24;;;;;;;28.83;10.30;;;2.50;84.20;;;;;;5114820;28;20016;-74
2023/03/02 07:36:51;;;;;;;34.22;9.57;;;2.50;83.70;;;;;;5114783;28;20050;-74
2023/03/02 07:39:17;;;;;;;31.98;10.88;;;2.50;84.20;;;;;;5114663;28;20053;-74
2023/03/02 07:41:43;;;;;;;32.83;11.55;;;2.60;83.40;;;;;;5114656;28;20020;-74
2023/03/02 07:44:08;;;;;;;31.67;9.98;;;2.60;84.10;;;;;;5114630;28;20031;-74
2023/03/02 07:46:34;;;;;;;30.10;10.80;;;2.60;83.60;;;;;;5113591;28;20058;-74
2023/03/02 07:49:00;;;;;;;31.38;9.95;;;2.70;83.80;;;;;;5114444;28;20035;-74
2023/03/02 07:51:25;;;;;;;32.17;10.75;;;2.70;83.60;;;;;;5113555;28;20024;-74
2023/03/02 07:53:51;;;;;;;37.72;12.73;;;2.80;83.40;;;;;;5114368;28;20032;-74
2023/03/02 07:56:17;;;;;;;36.45;11.63;;;2.80;83.50;;;;;;5113470;28;20038;-74
2023/03/02 07:58:43;;;;;;;29.48;10.13;;;2.90;83.20;;;;;;5114355;28;20020;-74
2023/03/02 08:01:08;;;;;;;26.67;9.88;;;2.90;83.50;;;;;;5114324;28;20042;-74
2023/03/02 08:03:35;;;;;;;28.65;10.02;;;2.90;83.40;;;;;;5114258;28;20020;-74
2023/03/02 08:06:09;;;;;;;25.73;10.50;;;3.00;83.40;;;;;;5113276;28;20065;-74
2023/03/02 08:08:36;;;;;;;29.63;9.65;;;3.10;83.10;;;;;;5113971;28;20032;-74
2023/03/02 08:11:10;;;;;;;27.52;9.90;;;3.10;83.00;;;;;;5114124;28;20017;-74
2023/03/02 08:13:36;;;;;;;31.42;10.88;;;3.20;83.70;;;;;;5114086;28;20079;-74
2023/03/02 08:16:05;;;;;;;25.42;9.93;;;3.20;82.60;;;;;;5114060;28;20043;-74
2023/03/02 08:18:31;;;;;;;33.20;10.68;;;3.30;82.30;;;;;;5113940;28;20020;-74
2023/03/02 08:20:57;;;;;;;27.85;9.43;;;3.40;82.40;;;;;;5113971;28;20020;-74
2023/03/02 08:23:23;;;;;;;27.08;8.88;;;3.50;82.10;;;;;;5113914;28;20036;-74
2023/03/02 08:25:50;;;;;;;30.77;11.63;;;3.50;82.20;;;;;;5113624;28;20024;-74
2023/03/02 08:28:16;;;;;;;24.38;9.23;;;3.60;81.80;;;;;;5113427;28;20024;-74
2023/03/02 08:30:42;;;;;;;31.73;10.57;;;3.80;81.50;;;;;;5113761;28;20062;-74
2023/03/02 08:33:07;;;;;;;26.90;9.25;;;3.80;81.10;;;;;;5113979;28;20111;-74
2023/03/02 08:35:33;;;;;;;25.42;9.02;;;3.90;80.80;;;;;;5113876;28;20027;-73
2023/03/02 08:37:58;;;;;;;24.52;9.10;;;3.90;80.90;;;;;;5113857;28;20039;-74
2023/03/02 08:40:26;;;;;;;24.38;8.70;;;4.10;80.90;;;;;;5113809;28;20096;-74
2023/03/02 08:42:56;;;;;;;22.75;9.10;;;4.10;80.20;;;;;;5113832;28;20032;-74
2023/03/02 08:45:25;;;;;;;29.00;9.70;;;4.30;79.90;;;;;;5113673;28;20031;-74
2023/03/02 08:47:54;;;;;;;25.40;8.93;;;4.50;79.50;;;;;;5112474;28;20131;-74
2023/03/02 08:50:20;;;;;;;22.90;8.45;;;4.50;78.90;;;;;;5113716;28;20025;-74
2023/03/02 08:52:46;;;;;;;26.08;9.57;;;4.60;78.70;;;;;;5113701;28;20016;-74
2023/03/02 08:55:12;;;;;;;24.35;8.13;;;4.80;78.80;;;;;;5113480;28;20025;-74
2023/03/02 08:57:40;;;;;;;22.08;9.77;;;5.00;78.30;;;;;;5113524;28;20044;-74
2023/03/02 09:00:08;;;;;;;21.90;8.93;;;5.10;77.40;;;;;;5113462;28;20030;-74
2023/03/02 09:02:33;;;;;;;21.35;8.95;;;5.30;76.70;;;;;;5113466;28;20020;-74
2023/03/02 09:04:59;;;;;;;18.77;8.02;;;5.40;76.00;;;;;;5113418;28;20027;-74
2023/03/02 09:07:25;;;;;;;17.15;7.75;;;5.60;76.00;;;;;;5112411;28;20051;-74
2023/03/02 09:09:50;;;;;;;20.80;7.88;;;5.70;75.30;;;;;;5112386;28;20032;-74
2023/03/02 09:12:16;;;;;;;16.35;7.72;;;5.80;74.30;;;;;;5113407;28;20032;-74
2023/03/02 09:14:41;;;;;;;23.73;8.82;;;5.90;73.50;;;;;;5113364;28;20021;-74
2023/03/02 09:17:07;;;;;;;22.73;7.78;;;6.00;72.90;;;;;;5095468;28;20039;-74
2023/03/02 09:19:40;;;;;;;19.58;7.18;;;6.10;72.90;;;;;;5095495;28;20024;-74
2023/03/02 09:22:07;;;;;;;19.63;6.97;;;6.20;71.40;;;;;;5113457;28;20086;-74
2023/03/02 09:24:33;;;;;;;19.65;7.85;;;6.30;70.60;;;;;;5113256;28;20016;-74
2023/03/02 09:26:59;;;;;;;20.88;7.97;;;6.40;71.00;;;;;;5112320;28;20061;-74
2023/03/02 09:29:25;;;;;;;18.83;7.50;;;6.50;70.00;;;;;;5113143;28;20069;-74
2023/03/02 09:31:50;;;;;;;20.35;7.93;;;6.60;70.10;;;;;;5113038;28;20064;-74
2023/03/02 09:34:16;;;;;;;21.58;7.63;;;6.70;70.80;;;;;;5113142;28;20097;-74
2023/03/02 09:36:41;;;;;;;22.88;8.38;;;6.80;70.80;;;;;;5113148;28;20024;-74
2023/03/02 09:39:11;;;;;;;21.35;8.50;;;6.90;70.60;;;;;;5116381;28;20113;-74
2023/03/02 09:42:14;;;;;;;20.27;8.45;;;7.10;70.70;;;;;;5116132;28;20026;-75
2023/03/02 09:44:50;;;;;;;21.67;8.07;;;7.20;69.10;;;;;;5117168;28;20028;-74
2023/03/02 09:47:42;;;;;;;19.02;7.60;;;7.20;69.30;;;;;;5117063;28;20024;-74
2023/03/02 09:50:36;;;;;;;17.85;7.55;;;7.30;69.10;;;;;;5116903;28;20024;-74
2023/03/02 09:53:17;;;;;;;21.33;8.45;;;7.40;68.50;;;;;;5115862;28;20047;-74
2023/03/02 09:55:45;;;;;;;22.17;8.50;;;7.50;68.90;;;;;;5116746;28;20017;-74
2023/03/02 09:58:19;;;;;;;18.83;7.78;;;7.60;68.60;;;;;;5116671;28;20020;-74
2023/03/02 10:00:46;;;;;;;20.33;9.20;;;7.70;68.30;;;;;;5116620;28;20028;-75
2023/03/02 10:03:21;;;;;;;19.58;8.23;;;7.70;68.00;;;;;;5116574;28;20080;-74
2023/03/02 10:05:53;;;;;;;17.83;8.23;;;7.80;67.70;;;;;;5116597;28;20044;-74
2023/03/02 10:08:24;;;;;;;18.25;7.65;;;7.70;67.80;;;;;;5116337;28;20083;-74
2023/03/02 10:11:19;;;;;;;17.77;8.18;;;7.80;67.80;;;;;;5098582;28;20040;-75
2023/03/02 10:14:11;;;;;;;26.25;9.25;;;7.90;67.40;;;;;;5116460;28;20095;-74
2023/03/02 10:16:46;;;;;;;23.40;8.70;;;7.90;67.10;;;;;;5116424;28;20062;-74
2023/03/02 10:19:28;;;;;;;26.67;10.02;;;8.10;67.30;;;;;;5116300;28;20386;-74
2023/03/02 10:22:13;;;;;;;18.00;7.97;;;8.10;66.90;;;;;;5116291;28;20086;-74
2023/03/02 10:25:07;;;;;;;21.67;9.20;;;8.20;66.10;;;;;;5116230;28;20048;-74
2023/03/02 10:27:40;;;;;;;20.27;7.97;;;8.30;66.00;;;;;;5115894;28;20028;-74
2023/03/02 10:30:31;;;;;;;20.88;8.68;;;8.30;66.40;;;;;;5116117;28;20097;-74
2023/03/02 10:33:03;;;;;;;21.45;8.95;;;8.40;65.80;;;;;;5116061;28;20024;-74
2023/03/02 10:35:30;;;;;;;20.02;8.57;;;8.50;65.80;;;;;;5115984;28;20016;-74
2023/03/02 10:38:10;;;;;;;21.02;8.52;;;8.40;65.90;;;;;;5115907;28;20020;-74
2023/03/02 10:40:43;;;;;;;17.30;7.65;;;8.50;66.10;;;;;;5115927;28;20028;-74
2023/03/02 10:43:34;;;;;;;20.08;9.45;;;8.60;65.60;;;;;;5115980;28;20028;-74
2023/03/02 10:46:02;;;;;;;20.05;8.57;;;8.70;64.60;;;;;;5106101;28;20054;-75
2023/03/02 10:48:28;;;;;;;17.30;7.78;;;8.70;63.90;;;;;;5115646;28;20028;-74
2023/03/02 10:50:57;;;;;;;19.88;8.02;;;8.80;64.40;;;;;;5114837;28;20038;-74
2023/03/02 10:53:23;;;;;;;18.98;8.20;;;8.90;64.40;;;;;;5115636;28;20107;-75
2023/03/02 10:55:51;;;;;;;22.17;8.10;;;9.00;63.80;;;;;;5115509;28;20054;-74
2023/03/02 10:58:21;;;;;;;16.92;7.72;;;9.10;63.20;;;;;;5115564;28;20432;-74
2023/03/02 11:01:02;;;;;;;21.85;8.68;;;9.20;63.40;;;;;;5115481;28;20038;-74
2023/03/02 11:03:28;;;;;;;17.75;8.43;;;9.30;64.00;;;;;;5115459;28;20080;-73
2023/03/02 11:05:56;;;;;;;16.92;7.78;;;9.40;61.60;;;;;;5114348;28;20028;-74
2023/03/02 11:08:24;;;;;;;20.83;8.88;;;9.40;62.30;;;;;;5115142;28;20054;-74
2023/03/02 11:10:56;;;;;;;13.73;7.03;;;9.40;62.00;;;;;;5115279;28;20475;-74
2023/03/02 11:13:32;;;;;;;19.20;8.10;;;9.50;61.00;;;;;;5115295;28;20096;-74
2023/03/02 11:16:20;;;;;;;17.35;7.07;;;9.60;60.90;;;;;;5115163;28;20020;-74
2023/03/02 11:18:55;;;;;;;15.77;7.35;;;9.60;60.10;;;;;;5114488;28;20046;-75
2023/03/02 11:21:30;;;;;;;16.92;8.18;;;9.80;60.70;;;;;;5114215;28;20054;-74
2023/03/02 11:24:05;;;;;;;17.35;8.90;;;9.80;60.40;;;;;;5115041;28;20015;-74
2023/03/02 11:26:36;;;;;;;16.92;8.77;;;9.80;58.10;;;;;;5115146;28;20032;-74
2023/03/02 11:29:05;;;;;;;15.07;7.45;;;9.60;57.60;;;;;;5114812;28;20092;-74
2023/03/02 11:31:42;;;;;;;18.83;6.55;;;9.50;57.80;;;;;;5114632;28;20052;-74
2023/03/02 11:34:33;;;;;;;15.00;7.60;;;9.60;59.10;;;;;;5115016;28;20019;-74
2023/03/02 11:37:19;;;;;;;16.52;6.97;;;9.70;58.50;;;;;;5114777;28;20044;-74
2023/03/02 11:39:48;;;;;;;13.88;7.05;;;9.80;58.80;;;;;;5114887;28;20087;-74
2023/03/02 11:42:42;;;;;;;17.02;7.93;;;10.00;59.40;;;;;;5113623;28;20092;-74
2023/03/02 11:45:16;;;;;;;16.45;7.13;;;10.10;56.40;;;;;;5111355;28;20043;-74
2023/03/02 11:47:48;;;;;;;15.30;7.57;;;10.00;57.00;;;;;;5114517;28;20053;-74
2023/03/02 11:50:15;;;;;;;18.40;7.63;;;10.10;57.10;;;;;;5114533;28;20046;-74
2023/03/02 11:52:46;;;;;;;13.52;6.90;;;10.20;56.00;;;;;;5114470;28;20038;-74
2023/03/02 11:55:15;;;;;;;15.13;6.88;;;10.20;57.00;;;;;;5113529;28;20084;-74
2023/03/02 11:57:48;;;;;;;15.70;7.18;;;10.30;56.50;;;;;;5114372;28;20464;-74
2023/03/02 12:00:20;;;;;;;14.30;7.30;;;10.40;55.40;;;;;;5113382;28;20016;-74
2023/03/02 12:02:56;;;;;;;12.82;6.75;;;10.30;54.70;;;;;;5114302;28;20138;-74
2023/03/02 12:05:25;;;;;;;16.55;7.13;;;10.40;55.40;;;;;;5113286;28;20031;-74
2023/03/02 12:08:00;;;;;;;13.00;6.75;;;10.50;55.50;;;;;;5113025;28;20036;-74
2023/03/02 12:10:43;;;;;;;14.50;6.28;;;10.60;55.30;;;;;;5114124;28;20035;-74
2023/03/02 12:13:19;;;;;;;13.80;6.30;;;10.70;55.00;;;;;;5114317;28;20489;-74
2023/03/02 12:15:46;;;;;;;14.20;6.32;;;10.70;54.00;;;;;;5114087;28;20472;-74
2023/03/02 12:18:21;;;;;;;12.75;6.40;;;10.80;54.30;;;;;;5113981;28;20026;-74
2023/03/02 12:21:02;;;;;;;13.65;5.90;;;10.90;53.80;;;;;;5114019;28;20087;-74
2023/03/02 12:23:29;;;;;;;14.43;7.00;;;10.90;52.60;;;;;;5114080;28;20095;-74
2023/03/02 12:26:22;;;;;;;13.70;6.28;;;11.00;51.80;;;;;;5113895;28;20020;-74
2023/03/02 12:28:59;;;;;;;;;;;10.90;50.90;;;;;;5114190;28;20035;-74
2023/03/02 12:31:38;;;;;;;15.20;6.75;;;11.00;51.50;;;;;;5113610;28;19942;-74
2023/03/02 12:34:24;;;;;;;11.52;5.80;;;11.00;52.80;;;;;;5112885;28;20035;-74
2023/03/02 12:36:53;;;;;;;12.15;5.88;;;11.00;51.00;;;;;;5113818;28;20047;-74
2023/03/02 12:39:36;;;;;;;12.43;5.60;;;11.00;50.00;;;;;;5113845;28;20016;-74
2023/03/02 12:42:36;;;;;;;13.57;5.68;;;11.00;49.10;;;;;;5113717;28;20083;-74
2023/03/02 12:45:16;;;;;;;14.02;6.47;;;11.20;50.60;;;;;;5112698;28;20054;-74
2023/03/02 12:47:48;;;;;;;12.20;4.90;;;11.30;51.10;;;;;;5113451;28;20024;-74
2023/03/02 12:50:22;;;;;;;11.48;5.75;;;11.30;49.00;;;;;;5113760;28;20371;-74
2023/03/02 12:53:16;;;;;;;12.43;6.47;;;11.40;48.70;;;;;;5113593;28;20146;-75
2023/03/02 12:55:41;;;;;;;12.52;5.80;;;11.40;48.40;;;;;;5112513;28;20095;-74